createdAt,value
2022-09-26T07:31:41.610Z,45.50
2022-09-26T07:36:49.916Z,28.00
2022-09-26T07:41:52.173Z,31.50
2022-09-26T07:47:12.393Z,25.60
2022-09-26T07:52:14.674Z,31.30
2022-09-26T07:57:41.673Z,25.30
2022-09-26T08:03:18.490Z,28.20
2022-09-26T08:08:20.373Z,29.10
2022-09-26T08:13:48.287Z,29.40
2022-09-26T08:19:12.211Z,30.60
2022-09-26T08:24:13.976Z,27.50
2022-09-26T08:29:35.017Z,29.00
2022-09-26T08:34:39.027Z,28.70
2022-09-26T08:40:00.922Z,132.00
2022-09-26T08:45:48.655Z,31.40
2022-09-26T08:51:26.777Z,30.90
2022-09-26T08:56:34.165Z,27.50
2022-09-26T09:01:39.379Z,23.00
2022-09-26T09:06:53.425Z,22.80
2022-09-26T09:12:04.171Z,20.20
2022-09-26T09:17:13.967Z,25.30
2022-09-26T09:22:32.422Z,17.70
2022-09-26T09:27:58.510Z,21.90
2022-09-26T09:33:10.231Z,15.50
2022-09-26T09:38:18.114Z,16.30
2022-09-26T09:44:00.164Z,43.60
2022-09-26T09:49:10.877Z,18.50
2022-09-26T09:54:22.205Z,11.70
2022-09-26T09:59:27.278Z,15.40
2022-09-26T10:04:49.135Z,15.40
2022-09-26T10:09:51.793Z,11.70
2022-09-26T10:15:19.720Z,12.70
2022-09-26T10:20:52.861Z,16.20
2022-09-26T10:25:59.921Z,10.60
2022-09-26T10:31:08.298Z,10.30
2022-09-26T10:36:29.157Z,10.80
2022-09-26T10:41:38.074Z,8.40
2022-09-26T10:46:42.810Z,10.80
2022-09-26T10:52:08.635Z,8.80
2022-09-26T10:57:18.758Z,8.60
2022-09-26T11:02:22.617Z,8.90
2022-09-26T11:07:30.314Z,8.50
2022-09-26T11:13:16.141Z,8.20
2022-09-26T11:18:20.513Z,6.30
2022-09-26T11:23:23.075Z,7.20
2022-09-26T11:28:30.905Z,7.90
2022-09-26T11:33:52.776Z,11.60
2022-09-26T11:39:28.084Z,12.70
2022-09-26T11:44:32.762Z,7.70
2022-09-26T11:49:55.066Z,12.60
2022-09-26T11:55:29.277Z,8.50
2022-09-26T12:00:36.867Z,8.30
2022-09-26T12:05:51.727Z,8.90
2022-09-26T12:10:56.768Z,8.80
2022-09-26T12:16:02.942Z,8.40
2022-09-26T12:21:16.670Z,7.80
2022-09-26T12:26:29.537Z,8.40
2022-09-26T12:31:50.620Z,9.00
2022-09-26T12:36:59.342Z,9.40
2022-09-26T12:42:24.644Z,8.90
2022-09-26T12:47:28.841Z,9.90
2022-09-26T12:52:30.402Z,8.60
2022-09-26T12:57:32.868Z,8.20
2022-09-26T13:02:43.679Z,8.60
2022-09-26T13:07:55.834Z,7.70
2022-09-26T13:13:10.138Z,8.60
2022-09-26T13:18:15.880Z,9.00
2022-09-26T13:23:27.542Z,6.80
2022-09-26T13:28:37.840Z,8.90
2022-09-26T13:33:44.753Z,8.90
2022-09-26T13:38:53.744Z,11.00
2022-09-26T13:44:28.543Z,7.80
2022-09-26T13:49:51.121Z,7.50
2022-09-26T13:55:14.406Z,6.70
2022-09-26T14:00:17.082Z,7.00
2022-09-26T14:05:18.556Z,6.30
2022-09-26T14:10:34.813Z,2.60
2022-09-26T14:15:48.707Z,3.30
2022-09-26T14:21:06.548Z,2.80
2022-09-26T14:26:09.672Z,3.00
2022-09-26T14:31:26.672Z,1.60
2022-09-26T14:36:32.099Z,1.20
2022-09-26T14:41:34.786Z,2.30
2022-09-26T14:46:36.334Z,1.90
2022-09-26T14:51:41.521Z,2.50
2022-09-26T14:56:51.185Z,2.60
2022-09-26T15:01:53.560Z,4.90
2022-09-26T15:07:01.240Z,4.10
2022-09-26T15:12:07.941Z,4.70
2022-09-26T15:17:35.568Z,7.90
2022-09-26T15:22:37.137Z,10.60
2022-09-26T15:27:46.112Z,5.50
2022-09-26T15:32:49.205Z,4.90
2022-09-26T15:37:50.816Z,7.00
2022-09-26T15:43:10.684Z,5.50
2022-09-26T15:48:24.259Z,12.10
2022-09-26T15:53:40.974Z,7.40
2022-09-26T15:58:49.242Z,4.00
2022-09-26T16:03:55.053Z,4.70
2022-09-26T16:09:04.186Z,5.30
2022-09-26T16:14:07.313Z,4.30
2022-09-26T16:19:27.925Z,6.00
2022-09-26T16:24:35.882Z,6.30
2022-09-26T16:29:51.821Z,19.40
2022-09-26T16:34:53.419Z,19.70
2022-09-26T16:39:57.190Z,27.20
2022-09-26T16:44:59.141Z,84.70
2022-09-26T16:50:19.884Z,82.00
2022-09-26T16:55:21.984Z,73.30
2022-09-26T17:00:43.892Z,47.70
2022-09-26T17:05:45.642Z,140.40
2022-09-26T17:10:47.186Z,39.70
2022-09-26T17:15:50.832Z,30.20
2022-09-26T17:20:52.644Z,28.50
2022-09-26T17:25:57.531Z,34.00
2022-09-26T17:31:06.289Z,45.70
2022-09-26T17:36:11.083Z,67.50
2022-09-26T17:41:13.073Z,59.40
2022-09-26T17:46:16.304Z,75.70
2022-09-26T17:51:21.144Z,79.40
2022-09-26T17:56:22.760Z,65.90
2022-09-26T18:01:26.298Z,75.40
2022-09-26T18:06:31.390Z,85.80
2022-09-26T18:11:34.742Z,92.00
2022-09-26T18:16:36.438Z,86.40
2022-09-26T18:21:40.188Z,124.60
2022-09-26T18:26:47.376Z,156.90
2022-09-26T18:31:49.208Z,159.40
2022-09-26T18:36:52.781Z,154.20
2022-09-26T18:41:57.527Z,128.50
2022-09-26T18:47:01.841Z,181.50
2022-09-26T18:52:04.258Z,196.30
2022-09-26T18:57:24.737Z,175.40
2022-09-26T19:02:35.518Z,177.80
2022-09-26T19:07:37.233Z,115.00
2022-09-26T19:12:39.933Z,80.30
2022-09-26T19:17:41.611Z,71.80
2022-09-26T19:22:43.231Z,60.30
2022-09-26T19:27:49.685Z,88.30
2022-09-26T19:32:52.532Z,88.40
2022-09-26T19:37:54.255Z,78.60
2022-09-26T19:42:57.324Z,69.60
2022-09-26T19:47:59.304Z,66.50
2022-09-26T19:53:03.256Z,66.70
2022-09-26T19:58:15.258Z,76.50
2022-09-26T20:03:18.421Z,78.30
2022-09-26T20:08:22.213Z,78.60
2022-09-26T20:13:23.708Z,66.70
2022-09-26T20:18:25.423Z,61.40
2022-09-26T20:23:27.122Z,65.40
2022-09-26T20:28:28.654Z,65.00
2022-09-26T20:33:30.302Z,59.90
2022-09-26T20:38:36.752Z,61.70
2022-09-26T20:43:38.708Z,60.90
2022-09-26T20:48:45.413Z,57.00
2022-09-26T20:53:46.964Z,78.80
2022-09-26T20:58:48.527Z,110.50
2022-09-26T21:03:51.094Z,123.80
2022-09-26T21:08:52.639Z,110.70
2022-09-26T21:13:54.064Z,108.60
2022-09-26T21:23:58.833Z,81.40
2022-09-26T21:29:00.466Z,69.80
2022-09-26T21:34:03.309Z,77.40
2022-09-26T21:39:04.988Z,90.00
2022-09-26T21:44:10.721Z,72.20
2022-09-26T21:49:12.184Z,65.00
2022-09-26T21:59:15.271Z,54.30
2022-09-26T22:04:16.868Z,50.00
2022-09-26T22:09:18.356Z,44.80
2022-09-26T22:14:19.889Z,47.20
2022-09-26T22:24:22.833Z,43.40
2022-09-26T22:29:24.316Z,40.10
2022-09-26T22:39:27.931Z,47.10
2022-09-26T22:44:29.474Z,47.60
2022-09-26T22:49:31.075Z,47.60
2022-09-26T22:54:32.575Z,36.70
2022-09-26T23:04:47.404Z,38.10
2022-09-26T23:09:49.039Z,41.80
2022-09-26T23:14:50.515Z,40.40
2022-09-26T23:19:52.332Z,36.10
2022-09-26T23:24:53.963Z,38.70
2022-09-26T23:29:55.415Z,35.40
2022-09-26T23:34:57.036Z,37.50
2022-09-26T23:39:58.577Z,41.10
2022-09-26T23:55:02.897Z,32.80
